Time;durP1;ratioP1;P1;durP2;ratioP2;P2;SDS_P1;SDS_P2;PMS_P1;PMS_P2;Temp;Humidity;BMP_temperature;BMP_pressure;BME280_temperature;BME280_humidity;BME280_pressure;Samples;Min_cycle;Max_cycle;Signal;HPM_P1;HPM_P2
2023/04/21 00:01:57;;;;;;;;;;;;;;;10.02;86.31;101249.16;7363364;19;19941;-63
2023/04/21 00:04:25;;;;;;;;;;;;;;;10.04;86.85;101247.25;7361287;19;19918;-64
2023/04/21 00:06:52;;;;;;;;;;;;;;;10.03;86.71;101232.44;7362281;19;19927;-64
2023/04/21 00:09:19;;;;;;;;;;;;;;;9.98;86.40;101237.28;7360532;19;20264;-65
2023/04/21 00:11:46;;;;;;;;;;;;;;;9.98;86.70;101231.19;7358435;19;20006;-65
2023/04/21 00:14:13;;;;;;;;;;;;;;;9.96;87.23;101248.88;7358190;19;20918;-64
2023/04/21 00:16:40;;;;;;;;;;;;;;;9.96;86.97;101235.75;7361589;19;20474;-64
2023/04/21 00:19:12;;;;;;;;;;;;;;;9.97;87.29;101232.16;7357743;19;19911;-64
2023/04/21 00:21:39;;;;;;;;;;;;;;;9.98;87.34;101226.75;7362045;19;19929;-64
2023/04/21 00:24:06;;;;;;;;;;;;;;;10.01;87.74;101223.84;7359696;19;20398;-65
2023/04/21 00:26:33;;;;;;;;;;;;;;;10.03;87.32;101215.84;7353702;19;19919;-64
2023/04/21 00:29:00;;;;;;;;;;;;;;;10.05;88.25;101216.53;7357488;19;19919;-66
2023/04/21 00:31:27;;;;;;;;;;;;;;;10.10;87.39;101225.66;7358416;19;19915;-64
2023/04/21 00:33:54;;;;;;;;;;;;;;;10.11;86.47;101229.09;7358602;19;19915;-64
2023/04/21 00:36:23;;;;;;;;;;;;;;;10.08;86.37;101205.72;7361023;19;19959;-66
2023/04/21 00:38:50;;;;;;;;;;;;;;;10.01;86.88;101212.50;7357882;19;19923;-64
2023/04/21 00:41:17;;;;;;;;;;;;;;;10.03;86.84;101215.84;7358073;19;19921;-64
2023/04/21 00:43:54;;;;;;;;;;;;;;;9.97;86.61;101213.75;7360491;19;19923;-64
2023/04/21 00:46:21;;;;;;;;;;;;;;;9.92;86.96;101208.91;7358224;19;20027;-65
2023/04/21 00:48:48;;;;;;;;;;;;;;;9.89;87.18;101206.59;7358776;19;19929;-64
2023/04/21 00:51:14;;;;;;;;;;;;;;;9.95;86.83;101195.50;7357485;19;19919;-64
2023/04/21 00:53:41;;;;;;;;;;;;;;;9.98;87.46;101191.75;7360855;19;19919;-64
2023/04/21 00:56:09;;;;;;;;;;;;;;;10.01;87.87;101194.09;7354569;19;19937;-64
2023/04/21 00:58:38;;;;;;;;;;;;;;;10.03;87.14;101189.53;7362202;19;19922;-63
2023/04/21 01:01:05;;;;;;;;;;;;;;;10.06;87.17;101191.88;7356709;19;20214;-63
2023/04/21 01:03:32;;;;;;;;;;;;;;;10.06;86.58;101182.19;7359744;19;19915;-65
2023/04/21 01:06:00;;;;;;;;;;;;;;;10.07;86.50;101183.03;7358445;19;20025;-64
2023/04/21 01:08:26;;;;;;;;;;;;;;;9.99;86.14;101183.75;7355258;19;20373;-63
2023/04/21 01:10:53;;;;;;;;;;;;;;;10.02;86.62;101180.81;7360702;19;19915;-65
2023/04/21 01:13:21;;;;;;;;;;;;;;;9.94;86.84;101172.81;7361612;19;19986;-63
2023/04/21 01:15:48;;;;;;;;;;;;;;;9.87;86.75;101169.09;7349919;19;20285;-63
2023/04/21 01:18:17;;;;;;;;;;;;;;;9.92;87.19;101172.13;7355707;19;19923;-63
2023/04/21 01:20:43;;;;;;;;;;;;;;;9.93;88.04;101165.06;7356804;19;19918;-64
2023/04/21 01:23:10;;;;;;;;;;;;;;;9.94;87.69;101161.47;7359286;19;19923;-64
2023/04/21 01:25:37;;;;;;;;;;;;;;;9.93;87.02;101170.31;7357133;19;20373;-64
2023/04/21 01:28:04;;;;;;;;;;;;;;;9.98;87.46;101161.06;7357961;19;20928;-65
2023/04/21 01:30:31;;;;;;;;;;;;;;;10.02;87.97;101166.84;7353650;19;19945;-64
2023/04/21 01:32:59;;;;;;;;;;;;;;;10.06;87.84;101152.44;7359534;19;19926;-65
2023/04/21 01:35:26;;;;;;;;;;;;;;;10.07;87.57;101160.19;7352935;19;19926;-65
2023/04/21 01:37:53;;;;;;;;;;;;;;;10.08;87.52;101155.78;7355758;19;19951;-66
2023/04/21 01:40:20;;;;;;;;;;;;;;;10.10;87.38;101143.34;7360498;19;19923;-63
2023/04/21 01:42:47;;;;;;;;;;;;;;;10.12;86.76;101142.19;7355460;19;20030;-64
2023/04/21 01:45:13;;;;;;;;;;;;;;;10.15;87.00;101133.22;7352658;19;20268;-64
2023/04/21 01:47:40;;;;;;;;;;;;;;;10.15;87.43;101141.09;7356258;19;19927;-65
2023/04/21 01:50:08;;;;;;;;;;;;;;;10.15;87.47;101130.59;7356894;19;19923;-64
2023/04/21 01:52:35;;;;;;;;;;;;;;;10.18;87.56;101133.78;7357960;19;19926;-65
2023/04/21 01:55:03;;;;;;;;;;;;;;;10.19;86.61;101130.19;7357645;19;19923;-65
2023/04/21 01:57:30;;;;;;;;;;;;;;;10.18;86.29;101131.16;7354744;19;19939;-65
2023/04/21 01:59:57;;;;;;;;;;;;;;;10.19;86.39;101132.81;7355613;19;20329;-64
2023/04/21 02:02:23;;;;;;;;;;;;;;;10.04;86.64;101128.13;7355654;19;19995;-64
2023/04/21 02:04:53;;;;;;;;;;;;;;;9.97;87.64;101125.22;7357669;19;19925;-64
2023/04/21 02:07:20;;;;;;;;;;;;;;;9.94;87.56;101117.63;7358866;19;19930;-64
2023/04/21 02:09:47;;;;;;;;;;;;;;;9.94;88.01;101122.06;7356612;19;19953;-65
2023/04/21 02:12:14;;;;;;;;;;;;;;;9.80;87.96;101121.50;7356524;19;19919;-65
2023/04/21 02:14:41;;;;;;;;;;;;;;;9.84;88.42;101120.28;7350669;19;19938;-65
2023/04/21 02:17:08;;;;;;;;;;;;;;;9.81;87.95;101109.19;7359000;19;20180;-65
2023/04/21 02:19:36;;;;;;;;;;;;;;;9.76;88.45;101122.75;7360209;19;19947;-65
2023/04/21 02:22:03;;;;;;;;;;;;;;;9.78;88.23;101115.56;7362754;19;20022;-65
2023/04/21 02:24:30;;;;;;;;;;;;;;;9.77;88.72;101107.81;7363774;19;19923;-65
2023/04/21 02:26:57;;;;;;;;;;;;;;;9.80;89.10;101100.47;7363854;19;19922;-63
2023/04/21 02:29:24;;;;;;;;;;;;;;;9.81;89.08;101101.31;7360983;19;19927;-64
2023/04/21 02:31:51;;;;;;;;;;;;;;;9.77;88.09;101092.06;7361272;19;19919;-64
2023/04/21 02:34:28;;;;;;;;;;;;;;;9.75;88.74;101086.94;7360300;19;19923;-65
2023/04/21 02:36:55;;;;;;;;;;;;;;;9.73;88.46;101093.31;7363217;19;19919;-64
2023/04/21 02:39:22;;;;;;;;;;;;;;;9.73;88.12;101081.00;7364291;19;20525;-65
2023/04/21 02:41:49;;;;;;;;;;;;;;;9.70;88.07;101086.53;7364654;19;20516;-65
2023/04/21 02:44:16;;;;;;;;;;;;;;;9.70;89.13;101083.09;7361982;19;20138;-64
2023/04/21 02:46:43;;;;;;;;;;;;;;;9.69;89.63;101079.66;7359353;19;19938;-64
2023/04/21 02:49:10;;;;;;;;;;;;;;;9.62;88.39;101068.03;7363730;19;19923;-64
2023/04/21 02:51:37;;;;;;;;;;;;;;;9.58;88.76;101066.66;7364222;19;20319;-64
2023/04/21 02:54:04;;;;;;;;;;;;;;;9.54;88.88;101067.91;7365553;19;20262;-65
2023/04/21 02:56:33;;;;;;;;;;;;;;;9.45;89.04;101068.72;7360813;19;19938;-64
2023/04/21 02:59:00;;;;;;;;;;;;;;;9.44;89.13;101060.03;7359349;19;20593;-64
2023/04/21 03:01:27;;;;;;;;;;;;;;;9.44;89.27;101061.84;7363155;19;20329;-65
2023/04/21 03:03:54;;;;;;;;;;;;;;;9.46;89.17;101062.50;7364160;19;20303;-65
2023/04/21 03:06:21;;;;;;;;;;;;;;;9.48;89.45;101062.38;7363185;19;19922;-65
2023/04/21 03:08:48;;;;;;;;;;;;;;;9.49;89.22;101062.25;7362267;19;19922;-65
2023/04/21 03:11:15;;;;;;;;;;;;;;;9.50;89.16;101061.25;7359209;19;19920;-65
2023/04/21 03:13:41;;;;;;;;;;;;;;;9.52;89.53;101061.13;7364710;19;21294;-64
2023/04/21 03:16:08;;;;;;;;;;;;;;;9.52;89.08;101056.72;7359058;19;19994;-63
2023/04/21 03:18:35;;;;;;;;;;;;;;;9.52;89.09;101056.72;7361014;19;19935;-64
2023/04/21 03:21:02;;;;;;;;;;;;;;;9.57;90.03;101051.84;7358618;19;19923;-63
2023/04/21 03:23:29;;;;;;;;;;;;;;;9.56;89.08;101050.19;7362532;19;19930;-66
2023/04/21 03:25:56;;;;;;;;;;;;;;;9.58;89.29;101040.38;7357763;19;19919;-64
2023/04/21 03:28:23;;;;;;;;;;;;;;;9.57;88.29;101046.59;7359858;19;19923;-65
2023/04/21 03:30:50;;;;;;;;;;;;;;;9.51;88.98;101035.81;7356723;19;20751;-64
2023/04/21 03:33:16;;;;;;;;;;;;;;;9.48;89.04;101039.56;7361879;19;20317;-64
2023/04/21 03:35:43;;;;;;;;;;;;;;;9.43;89.38;101037.38;7359537;19;19944;-64
2023/04/21 03:38:10;;;;;;;;;;;;;;;9.38;89.72;101033.50;7359932;19;19919;-64
2023/04/21 03:40:37;;;;;;;;;;;;;;;9.39;89.66;101028.13;7362051;19;20442;-64
2023/04/21 03:43:04;;;;;;;;;;;;;;;9.43;89.85;101029.50;7360313;19;19917;-64
2023/04/21 03:45:31;;;;;;;;;;;;;;;9.39;90.00;101022.03;7357425;19;19914;-64
2023/04/21 03:47:58;;;;;;;;;;;;;;;9.41;90.12;101026.16;7359581;19;19922;-64
2023/04/21 03:50:25;;;;;;;;;;;;;;;9.43;90.54;101029.50;7359729;19;19927;-66
2023/04/21 03:52:52;;;;;;;;;;;;;;;9.47;91.15;101026.56;7360037;19;19930;-64
2023/04/21 03:55:19;;;;;;;;;;;;;;;9.50;89.77;101016.59;7360096;19;19923;-64
2023/04/21 03:57:45;;;;;;;;;;;;;;;9.51;89.72;101013.03;7359803;19;20329;-63
2023/04/21 04:00:13;;;;;;;;;;;;;;;9.49;89.57;101003.63;7358663;19;19947;-64
2023/04/21 04:02:40;;;;;;;;;;;;;;;9.44;89.62;101004.06;7361675;19;19944;-65
2023/04/21 04:05:07;;;;;;;;;;;;;;;9.38;89.96;100999.38;7360056;19;19926;-64
2023/04/21 04:07:34;;;;;;;;;;;;;;;9.39;89.72;100990.53;7362129;19;20279;-66
2023/04/21 04:10:01;;;;;;;;;;;;;;;9.37;90.33;100987.22;7362857;19;19945;-65
2023/04/21 04:12:28;;;;;;;;;;;;;;;9.40;90.44;100989.53;7361194;19;20002;-65
2023/04/21 04:14:55;;;;;;;;;;;;;;;9.43;90.94;100986.66;7356889;19;19927;-64
2023/04/21 04:17:22;;;;;;;;;;;;;;;9.46;90.32;100986.34;7358198;19;19918;-65
2023/04/21 04:19:48;;;;;;;;;;;;;;;9.47;90.15;100976.69;7358194;19;19915;-64
2023/04/21 04:22:15;;;;;;;;;;;;;;;9.47;90.26;100976.69;7359067;19;19927;-65
2023/04/21 04:24:43;;;;;;;;;;;;;;;9.43;90.05;100986.66;7360612;19;19918;-64
2023/04/21 04:27:12;;;;;;;;;;;;;;;9.44;91.42;100968.13;7361532;19;19922;-64
2023/04/21 04:29:40;;;;;;;;;;;;;;;9.45;91.93;100968.94;7360653;19;19930;-65
2023/04/21 04:32:09;;;;;;;;;;;;;;;9.43;90.96;100968.25;7360936;19;19918;-64
2023/04/21 04:34:36;;;;;;;;;;;;;;;9.43;90.89;100966.47;7360665;19;20337;-64
2023/04/21 04:37:03;;;;;;;;;;;;;;;9.43;90.91;100958.59;7359656;19;19927;-64
2023/04/21 04:39:31;;;;;;;;;;;;;;;9.45;91.27;100967.13;7359651;19;19914;-63
2023/04/21 04:41:58;;;;;;;;;;;;;;;9.25;91.06;100964.69;7358272;19;20589;-67
2023/04/21 04:44:25;;;;;;;;;;;;;;;9.18;91.65;100945.25;7356477;19;20843;-65
2023/04/21 04:46:52;;;;;;;;;;;;;;;9.21;91.91;100945.78;7359856;19;19935;-65
2023/04/21 04:49:19;;;;;;;;;;;;;;;9.23;92.63;100945.66;7359112;19;19955;-65
2023/04/21 04:51:49;;;;;;;;;;;;;;;9.23;92.50;100949.09;7358180;19;19974;-65
2023/04/21 04:54:16;;;;;;;;;;;;;;;9.27;91.39;100937.34;7357506;19;20362;-64
2023/04/21 04:56:43;;;;;;;;;;;;;;;9.29;91.44;100927.53;7357367;19;19954;-65
2023/04/21 04:59:10;;;;;;;;;;;;;;;9.33;90.94;100935.94;7357605;19;20469;-64
2023/04/21 05:01:39;;;;;;;;;;;;;;;9.34;91.17;100933.19;7359552;19;20325;-65
2023/04/21 05:04:06;;;;;;;;;;;;;;;9.39;90.97;100933.59;7358871;19;19936;-67
2023/04/21 05:06:33;;;;;;;;;;;;;;;9.45;91.26;100932.16;7358591;19;20341;-66
2023/04/21 05:09:00;;;;;;;;;;;;;;;9.50;91.58;100937.03;7357551;19;19963;-64
2023/04/21 05:11:27;;;;;;;;;;;;;;;9.52;91.20;100929.81;7356974;19;19918;-64
2023/04/21 05:13:54;;;;;;;;;;;;;;;9.55;90.49;100932.97;7356912;19;19923;-63
2023/04/21 05:16:21;;;;;;;;;;;;;;;9.61;91.92;100934.19;7357248;19;19938;-64
2023/04/21 05:18:52;;;;;;;;;;;;;;;9.64;91.03;100926.88;7357293;19;19930;-65
2023/04/21 05:21:23;;;;;;;;;;;;;;;9.67;90.49;100915.22;7355091;19;20107;-64
2023/04/21 05:23:50;;;;;;;;;;;;;;;9.69;91.29;100919.38;7356854;19;19915;-65
2023/04/21 05:26:17;;;;;;;;;;;;;;;9.69;90.20;100910.66;7359040;19;19922;-64
2023/04/21 05:28:44;;;;;;;;;;;;;;;9.72;90.63;100916.44;7357106;19;19919;-64
2023/04/21 05:31:11;;;;;;;;;;;;;;;9.73;91.23;100915.50;7351261;19;19922;-65
2023/04/21 05:33:38;;;;;;;;;;;;;;;9.72;91.47;100905.13;7354174;19;19925;-64
2023/04/21 05:36:07;;;;;;;;;;;;;;;9.75;90.86;100904.84;7354435;19;19923;-64
2023/04/21 05:38:35;;;;;;;;;;;;;;;9.78;91.02;100907.16;7360865;19;19936;-66
2023/04/21 05:41:02;;;;;;;;;;;;;;;9.84;90.49;100904.78;7358000;19;20592;-65
2023/04/21 05:43:32;;;;;;;;;;;;;;;9.88;90.39;100900.06;7359309;19;19922;-65
2023/04/21 05:45:59;;;;;;;;;;;;;;;9.93;90.28;100897.00;7353590;19;20254;-65
2023/04/21 05:48:27;;;;;;;;;;;;;;;9.95;89.71;100898.50;7358818;19;20626;-65
2023/04/21 05:50:55;;;;;;;;;;;;;;;9.97;90.31;100900.97;7354391;19;20400;-64
2023/04/21 05:53:23;;;;;;;;;;;;;;;9.97;90.29;100895.72;7362574;19;20022;-65
2023/04/21 05:55:50;;;;;;;;;;;;;;;10.00;90.01;100892.81;7363136;19;19983;-65
2023/04/21 05:58:17;;;;;;;;;;;;;;;9.99;90.14;100894.59;7365604;19;19946;-64
2023/04/21 06:00:45;;;;;;;;;;;;;;;10.01;90.68;100879.50;7351962;19;19966;-64
2023/04/21 06:03:14;;;;;;;;;;;;;;;10.05;91.09;100890.56;7366286;19;19941;-64
2023/04/21 06:05:41;;;;;;;;;;;;;;;9.95;89.88;100879.28;7361319;19;19917;-63
2023/04/21 06:08:08;;;;;;;;;;;;;;;10.02;90.48;100881.16;7365327;19;19914;-65
2023/04/21 06:10:35;;;;;;;;;;;;;;;10.05;91.76;100880.06;7363687;19;19999;-64
2023/04/21 06:13:02;;;;;;;;;;;;;;;10.06;91.60;100877.25;7361526;19;19923;-64
2023/04/21 06:15:29;;;;;;;;;;;;;;;10.07;91.13;100871.03;7360578;19;19926;-63
2023/04/21 06:17:56;;;;;;;;;;;;;;;10.10;90.60;100869.91;7364673;19;20411;-64
2023/04/21 06:20:23;;;;;;;;;;;;;;;10.14;90.42;100869.47;7364005;19;19982;-65
2023/04/21 06:22:50;;;;;;;;;;;;;;;10.21;89.70;100862.66;7363292;19;20343;-66
2023/04/21 06:25:17;;;;;;;;;;;;;;;10.27;89.30;100866.50;7363029;19;19968;-65
2023/04/21 06:27:44;;;;;;;;;;;;;;;10.29;89.18;100854.84;7364262;19;19926;-65
2023/04/21 06:30:11;;;;;;;;;;;;;;;10.31;88.72;100862.56;7358696;19;19931;-65
2023/04/21 06:32:38;;;;;;;;;;;;;;;10.33;88.37;100857.19;7358298;19;19915;-66
2023/04/21 06:35:06;;;;;;;;;;;;;;;10.30;87.96;100847.81;7362424;19;19998;-64
2023/04/21 06:37:33;;;;;;;;;;;;;;;10.32;88.40;100842.38;7363090;19;19919;-64
2023/04/21 06:39:59;;;;;;;;;;;;;;;10.33;88.46;100838.78;7362302;19;19992;-65
2023/04/21 06:42:26;;;;;;;;;;;;;;;10.39;88.67;100835.53;7361276;19;19910;-65
2023/04/21 06:44:55;;;;;;;;;;;;;;;10.48;88.60;100839.88;7358906;19;19919;-64
2023/04/21 06:47:22;;;;;;;;;;;;;;;10.54;87.92;100828.75;7364096;19;19929;-64
2023/04/21 06:49:49;;;;;;;;;;;;;;;10.62;87.62;100826.19;7362581;19;20163;-65
2023/04/21 06:52:16;;;;;;;;;;;;;;;10.69;86.67;100825.44;7360685;19;19990;-65
2023/04/21 06:54:45;;;;;;;;;;;;;;;10.73;86.57;100818.03;7361738;19;20337;-65
2023/04/21 06:57:14;;;;;;;;;;;;;;;10.73;85.01;100824.13;7360061;19;19940;-64
2023/04/21 06:59:43;;;;;;;;;;;;;;;10.74;85.49;100830.22;7360155;19;20529;-65
2023/04/21 07:02:10;;;;;;;;;;;;;;;10.70;85.53;100828.88;7363872;19;21681;-65
2023/04/21 07:04:37;;;;;;;;;;;;;;;10.64;85.27;100826.88;7357775;19;20647;-64
2023/04/21 07:07:04;;;;;;;;;;;;;;;10.62;85.45;100818.28;7364052;19;20703;-65
2023/04/21 07:09:32;;;;;;;;;;;;;;;10.66;85.81;100815.22;7361242;19;19918;-66
2023/04/21 07:12:00;;;;;;;;;;;;;;;10.61;85.46;100814.03;7361404;19;20557;-65
2023/04/21 07:14:27;;;;;;;;;;;;;;;10.56;83.29;100805.78;7355946;19;19927;-65
2023/04/21 07:16:55;;;;;;;;;;;;;;;10.56;83.91;100800.50;7360854;19;19915;-64
2023/04/21 07:19:23;;;;;;;;;;;;;;;10.42;83.31;100804.50;7362226;19;19949;-63
2023/04/21 07:21:49;;;;;;;;;;;;;;;10.47;83.73;100791.72;7362369;19;20817;-64
2023/04/21 07:24:17;;;;;;;;;;;;;;;10.43;83.13;100792.16;7360334;19;19933;-64
2023/04/21 07:26:43;;;;;;;;;;;;;;;10.41;83.34;100796.78;7362578;19;19915;-65
2023/04/21 07:29:10;;;;;;;;;;;;;;;10.41;84.39;100800.22;7358339;19;20437;-64
2023/04/21 07:31:37;;;;;;;;;;;;;;;10.41;84.49;100792.34;7360464;19;19967;-63
2023/04/21 07:34:05;;;;;;;;;;;;;;;10.42;84.78;100795.78;7361630;19;19935;-64
2023/04/21 07:36:32;;;;;;;;;;;;;;;10.43;83.33;100794.78;7357338;19;20501;-64
2023/04/21 07:38:59;;;;;;;;;;;;;;;10.42;83.38;100796.59;7359334;19;19918;-63
2023/04/21 07:41:28;;;;;;;;;;;;;;;10.45;82.45;100788.41;7359594;19;19911;-63
2023/04/21 07:43:56;;;;;;;;;;;;;;;10.45;82.03;100792.84;7360047;19;19918;-64
2023/04/21 07:46:28;;;;;;;;;;;;;;;10.44;80.79;100786.75;7356958;19;19954;-64
2023/04/21 07:48:56;;;;;;;;;;;;;;;10.44;80.74;100783.31;7357418;19;19937;-64
2023/04/21 07:51:23;;;;;;;;;;;;;;;10.43;80.23;100776.38;7360443;19;19949;-64
2023/04/21 07:53:51;;;;;;;;;;;;;;;10.36;79.99;100781.47;7357612;19;19931;-68
2023/04/21 07:56:18;;;;;;;;;;;;;;;10.36;80.50;100775.38;7349989;19;20320;-65
2023/04/21 07:58:50;;;;;;;;;;;;;;;10.33;79.63;100773.03;7356619;19;20224;-66
2023/04/21 08:01:17;;;;;;;;;;;;;;;10.34;79.93;100767.63;7358892;19;19982;-65
2023/04/21 08:03:44;;;;;;;;;;;;;;;10.34;81.19;100775.50;7360908;19;20423;-64
2023/04/21 08:06:12;;;;;;;;;;;;;;;10.34;80.76;100764.16;7359712;19;19946;-65
2023/04/21 08:08:39;;;;;;;;;;;;;;;10.34;81.33;100764.16;7362579;19;19930;-64
2023/04/21 08:11:06;;;;;;;;;;;;;;;10.39;81.44;100756.63;7351467;19;20239;-64
2023/04/21 08:13:36;;;;;;;;;;;;;;;10.44;79.24;100749.94;7347276;19;19994;-65
2023/04/21 08:16:03;;;;;;;;;;;;;;;10.47;79.78;100754.88;7347462;19;19994;-63
2023/04/21 08:18:31;;;;;;;;;;;;;;;10.49;80.59;100757.38;7352549;19;19919;-64
2023/04/21 08:20:58;;;;;;;;;;;;;;;10.52;81.29;100757.03;7357931;19;19919;-64
2023/04/21 08:23:26;;;;;;;;;;;;;;;10.52;80.65;100757.03;7360606;19;19922;-64
2023/04/21 08:25:53;;;;;;;;;;;;;;;10.50;80.46;100759.03;7354487;19;20377;-64
2023/04/21 08:28:20;;;;;;;;;;;;;;;10.38;80.46;100768.97;7355786;19;20364;-64
2023/04/21 08:30:48;;;;;;;;;;;;;;;10.36;81.71;100764.84;7350665;19;19919;-65
2023/04/21 08:33:15;;;;;;;;;;;;;;;10.35;82.47;100763.19;7359652;19;20261;-64
2023/04/21 08:35:42;;;;;;;;;;;;;;;10.32;81.50;100758.22;7354327;19;19989;-65
2023/04/21 08:38:29;;;;;;;;;;;;;;;10.28;81.34;100761.16;7352986;19;19956;-65
2023/04/21 08:40:58;;;;;;;;;;;;;;;10.28;82.57;100755.06;7352642;19;19915;-64
2023/04/21 08:43:26;;;;;;;;;;;;;;;10.28;82.67;100758.53;7355150;19;20301;-65
2023/04/21 08:45:53;;;;;;;;;;;;;;;10.28;83.40;100752.44;7347772;19;19922;-65
2023/04/21 08:48:22;;;;;;;;;;;;;;;10.31;84.87;100751.31;7353726;19;20305;-64
2023/04/21 08:50:51;;;;;;;;;;;;;;;10.29;84.71;100749.66;7355648;19;20241;-64
2023/04/21 08:53:18;;;;;;;;;;;;;;;10.30;83.38;100750.50;7356384;19;19971;-64
2023/04/21 08:55:50;;;;;;;;;;;;;;;10.29;84.17;100756.72;7350050;19;19926;-65
2023/04/21 08:58:35;;;;;;;;;;;;;;;10.31;83.14;100752.13;7354013;19;19923;-64
2023/04/21 09:01:02;;;;;;;;;;;;;;;10.25;82.66;100756.22;7350605;19;19919;-64
2023/04/21 09:03:30;;;;;;;;;;;;;;;10.24;83.02;100756.38;7356072;19;19915;-64
2023/04/21 09:05:58;;;;;;;;;;;;;;;10.19;83.53;100748.94;7351234;19;19919;-63
2023/04/21 09:08:28;;;;;;;;;;;;;;;10.20;84.38;100747.97;7351815;19;19923;-65
2023/04/21 09:10:56;;;;;;;;;;;;;;;10.18;84.30;100747.28;7353469;19;19949;-64
2023/04/21 09:13:33;;;;;;;;;;;;;;;10.21;85.18;100754.84;7349269;19;19919;-64
2023/04/21 09:16:01;;;;;;;;;;;;;;;10.29;85.92;100754.94;7343373;19;19921;-64
2023/04/21 09:18:35;;;;;;;;;;;;;;;10.30;84.28;100753.13;7351555;19;21830;-65
2023/04/21 09:21:07;;;;;;;;;;;;;;;10.32;85.29;100750.31;7351758;19;19931;-65
2023/04/21 09:23:38;;;;;;;;;;;;;;;10.34;84.36;100756.28;7357663;19;19925;-67
2023/04/21 09:26:06;;;;;;;;;;;;;;;10.34;84.94;100758.91;7351960;19;20424;-64
2023/04/21 09:28:33;;;;;;;;;;;;;;;10.33;85.59;100752.81;7361858;19;19919;-64
2023/04/21 09:31:00;;;;;;;;;;;;;;;10.36;86.85;100747.25;7357027;19;20682;-64
2023/04/21 09:33:27;;;;;;;;;;;;;;;10.36;87.69;100749.06;7364484;19;20257;-64
2023/04/21 09:36:05;;;;;;;;;;;;;;;10.37;89.04;100742.81;7357129;19;20327;-64
2023/04/21 09:38:32;;;;;;;;;;;;;;;10.38;86.84;100747.91;7356262;19;20336;-64
2023/04/21 09:40:59;;;;;;;;;;;;;;;10.39;87.52;100748.75;7359679;19;19968;-64
2023/04/21 09:43:26;;;;;;;;;;;;;;;10.39;87.87;100756.63;7361345;19;20649;-64
2023/04/21 09:45:54;;;;;;;;;;;;;;;10.36;89.05;100749.91;7351765;19;19991;-64
2023/04/21 09:48:24;;;;;;;;;;;;;;;10.28;87.82;100749.81;7357648;19;19923;-64
2023/04/21 09:50:52;;;;;;;;;;;;;;;10.27;89.42;100750.78;7360190;19;19923;-64
2023/04/21 09:53:40;;;;;;;;;;;;;;;10.24;89.11;100746.69;7360643;19;19923;-65
2023/04/21 09:56:12;;;;;;;;;;;;;;;10.25;89.89;100748.34;7355848;19;19923;-65
2023/04/21 09:58:43;;;;;;;;;;;;;;;10.26;90.35;100749.13;7359844;19;20305;-65
2023/04/21 10:01:12;;;;;;;;;;;;;;;10.28;91.60;100748.00;7354589;19;20918;-63
2023/04/21 10:03:40;;;;;;;;;;;;;;;10.25;89.14;100739.63;7359949;19;19974;-65
2023/04/21 10:06:09;;;;;;;;;;;;;;;10.21;87.43;100744.34;7355106;19;20213;-64
2023/04/21 10:08:36;;;;;;;;;;;;;;;10.25;87.82;100732.56;7360206;19;20273;-65
2023/04/21 10:11:04;;;;;;;;;;;;;;;10.23;87.65;100731.88;7359181;19;19918;-65
2023/04/21 10:13:32;;;;;;;;;;;;;;;10.25;88.28;100732.56;7357942;19;19987;-65
2023/04/21 10:16:03;;;;;;;;;;;;;;;10.23;88.15;100731.03;7349575;19;21510;-66
2023/04/21 10:18:33;;;;;;;;;;;;;;;10.25;88.87;100739.63;7357544;19;19923;-66
2023/04/21 10:21:02;;;;;;;;;;;;;;;10.28;89.15;100737.50;7358622;19;20266;-64
2023/04/21 10:23:30;;;;;;;;;;;;;;;10.35;90.41;100731.63;7359597;19;19982;-63
2023/04/21 10:26:01;;;;;;;;;;;;;;;10.38;90.15;100740.03;7351373;19;19928;-63
2023/04/21 10:28:38;;;;;;;;;;;;;;;10.45;91.14;100732.34;7359030;19;19919;-63
2023/04/21 10:31:15;;;;;;;;;;;;;;;10.52;91.78;100736.00;7356362;19;20134;-64
2023/04/21 10:34:02;;;;;;;;;;;;;;;10.55;91.53;100735.72;7355028;19;19923;-64
2023/04/21 10:36:29;;;;;;;;;;;;;;;10.57;91.17;100729.31;7354048;19;19919;-64
2023/04/21 10:39:00;;;;;;;;;;;;;;;10.57;88.75;100723.22;7353238;19;19919;-64
2023/04/21 10:41:28;;;;;;;;;;;;;;;10.56;87.65;100726.84;7359284;19;20387;-64
2023/04/21 10:43:57;;;;;;;;;;;;;;;10.54;86.93;100729.63;7355385;19;21787;-63
2023/04/21 10:46:34;;;;;;;;;;;;;;;10.59;86.54;100737.03;7352315;19;19943;-64
2023/04/21 10:49:09;;;;;;;;;;;;;;;10.57;86.67;100729.31;7355383;19;21564;-64
2023/04/21 10:51:56;;;;;;;;;;;;;;;10.60;86.75;100721.13;7359215;19;19930;-64
2023/04/21 10:54:25;;;;;;;;;;;;;;;10.66;86.84;100727.56;7351597;19;19929;-64
2023/04/21 10:56:53;;;;;;;;;;;;;;;10.72;87.40;100729.53;7354753;19;20412;-68
2023/04/21 10:59:20;;;;;;;;;;;;;;;10.80;87.11;100726.97;7353911;19;20525;-66
2023/04/21 11:01:48;;;;;;;;;;;;;;;10.84;86.70;100727.47;7355821;19;19923;-65
2023/04/21 11:04:17;;;;;;;;;;;;;;;10.84;86.93;100720.41;7353587;19;20326;-66
2023/04/21 11:07:06;;;;;;;;;;;;;;;10.86;86.61;100725.53;7355271;19;19914;-65
2023/04/21 11:09:34;;;;;;;;;;;;;;;10.90;86.50;100729.50;7356776;19;21059;-65
2023/04/21 11:12:06;;;;;;;;;;;;;;;11.06;86.43;100724.31;7354770;19;19927;-65
2023/04/21 11:14:34;;;;;;;;;;;;;;;11.26;86.18;100727.50;7351202;19;20373;-64
2023/04/21 11:17:02;;;;;;;;;;;;;;;11.43;84.77;100729.19;7346421;19;19923;-64
2023/04/21 11:19:31;;;;;;;;;;;;;;;11.65;83.77;100719.84;7353106;19;20367;-65
2023/04/21 11:21:58;;;;;;;;;;;;;;;11.80;83.05;100718.25;7360600;19;20253;-65
2023/04/21 11:24:26;;;;;;;;;;;;;;;11.87;80.92;100720.09;7351053;19;20320;-64
2023/04/21 11:26:53;;;;;;;;;;;;;;;11.95;80.15;100712.16;7354229;19;19986;-63
2023/04/21 11:29:21;;;;;;;;;;;;;;;12.03;80.80;100724.53;7353489;19;20310;-64
2023/04/21 11:31:49;;;;;;;;;;;;;;;12.08;77.27;100713.50;7358827;19;19927;-63
2023/04/21 11:34:19;;;;;;;;;;;;;;;12.15;76.47;100712.66;7353898;19;19927;-64
2023/04/21 11:36:47;;;;;;;;;;;;;;;12.19;76.64;100721.88;7352880;19;19919;-64
2023/04/21 11:39:16;;;;;;;;;;;;;;;12.17;75.70;100715.97;7356243;19;19919;-66
2023/04/21 11:41:48;;;;;;;;;;;;;;;12.16;76.06;100719.59;7356983;19;19999;-64
2023/04/21 11:44:25;;;;;;;;;;;;;;;12.24;76.50;100711.66;7355757;19;20592;-66
2023/04/21 11:46:52;;;;;;;;;;;;;;;12.29;77.28;100714.63;7353021;19;19911;-64
2023/04/21 11:49:25;;;;;;;;;;;;;;;12.32;76.85;100705.56;7351504;19;19943;-63
2023/04/21 11:51:52;;;;;;;;;;;;;;;12.29;77.11;100706.69;7357083;19;19993;-65
2023/04/21 11:54:20;;;;;;;;;;;;;;;12.22;74.52;100708.38;7352957;19;20362;-64
2023/04/21 11:56:48;;;;;;;;;;;;;;;12.20;75.55;100705.06;7354479;19;20002;-64
2023/04/21 11:59:18;;;;;;;;;;;;;;;12.11;75.32;100707.88;7350590;19;21289;-64
2023/04/21 12:01:46;;;;;;;;;;;;;;;12.06;75.71;100705.75;7360300;19;19919;-64
2023/04/21 12:04:15;;;;;;;;;;;;;;;12.02;77.24;100714.97;7350648;19;20033;-64
2023/04/21 12:06:44;;;;;;;;;;;;;;;11.95;78.05;100706.88;7354604;19;19922;-64
2023/04/21 12:09:18;;;;;;;;;;;;;;;11.99;78.34;100705.56;7352502;19;19926;-64
2023/04/21 12:11:46;;;;;;;;;;;;;;;12.05;78.36;100711.16;7355900;19;19955;-65
2023/04/21 12:14:15;;;;;;;;;;;;;;;12.12;76.77;100701.63;7349491;19;20498;-63
2023/04/21 12:16:42;;;;;;;;;;;;;;;12.08;77.18;100711.69;7352171;19;19923;-64
2023/04/21 12:19:09;;;;;;;;;;;;;;;12.12;77.81;100717.44;7352690;19;20237;-64
2023/04/21 12:21:38;;;;;;;;;;;;;;;12.09;76.96;100717.78;7361004;19;20335;-64
2023/04/21 12:24:05;;;;;;;;;;;;;;;12.10;76.62;100714.13;7360554;19;19983;-64
2023/04/21 12:26:32;;;;;;;;;;;;;;;12.23;76.77;100711.84;7360737;19;19927;-64
2023/04/21 12:28:59;;;;;;;;;;;;;;;12.30;76.67;100720.72;7358947;19;20202;-64
2023/04/21 12:31:27;;;;;;;;;;;;;;;12.37;75.74;100711.97;7358688;19;19919;-65
2023/04/21 12:33:54;;;;;;;;;;;;;;;12.38;74.89;100721.56;7360923;19;20338;-64
2023/04/21 12:36:22;;;;;;;;;;;;;;;12.44;75.22;100714.78;7357434;19;19923;-63
2023/04/21 12:38:49;;;;;;;;;;;;;;;12.52;74.68;100719.22;7360128;19;19950;-64
2023/04/21 12:41:16;;;;;;;;;;;;;;;12.58;73.72;100724.66;7359606;19;19926;-64
2023/04/21 12:43:44;;;;;;;;;;;;;;;12.60;72.96;100712.09;7341838;19;20283;-65
2023/04/21 12:46:11;;;;;;;;;;;;;;;12.58;73.03;100711.44;7347673;19;19922;-65